createdAt,value
2022-12-04T00:00:16.163Z,91.370833
2022-12-04T00:05:16.290Z,91.400000
2022-12-04T00:10:15.885Z,91.400000
2022-12-04T00:15:26.803Z,91.400000
2022-12-04T00:20:18.499Z,91.416000
2022-12-04T00:25:18.446Z,91.466667
2022-12-04T00:30:18.346Z,91.500000
2022-12-04T00:35:18.561Z,91.500000
2022-12-04T00:40:18.445Z,91.500000
2022-12-04T00:45:18.402Z,91.500000
2022-12-04T00:50:18.368Z,91.516667
2022-12-04T00:55:18.327Z,91.583333
2022-12-04T01:00:18.436Z,91.537500
2022-12-04T01:05:18.405Z,91.579167
2022-12-04T01:10:18.337Z,91.600000
2022-12-04T01:15:18.895Z,91.600000
2022-12-04T01:20:18.727Z,91.600000
2022-12-04T01:25:18.388Z,91.600000
2022-12-04T01:30:18.359Z,91.600000
2022-12-04T01:35:18.496Z,91.600000
2022-12-04T01:40:18.411Z,91.600000
2022-12-04T01:45:18.537Z,91.600000
2022-12-04T01:50:18.359Z,91.600000
2022-12-04T01:55:18.316Z,91.600000
2022-12-04T02:00:18.873Z,91.616667
2022-12-04T02:05:18.284Z,91.600000
2022-12-04T02:10:18.766Z,91.600000
2022-12-04T02:15:18.572Z,91.600000
2022-12-04T02:20:18.395Z,91.600000
2022-12-04T02:25:18.265Z,91.600000
2022-12-04T02:30:18.324Z,91.600000
2022-12-04T02:35:18.346Z,91.583333
2022-12-04T02:40:16.016Z,91.554167
2022-12-04T02:45:15.795Z,91.500000
2022-12-04T02:50:15.852Z,91.500000
2022-12-04T02:55:15.836Z,91.500000
2022-12-04T03:00:15.871Z,91.500000
2022-12-04T03:05:16.274Z,91.500000
2022-12-04T03:10:15.828Z,91.500000
2022-12-04T03:15:15.833Z,91.466667
2022-12-04T03:20:15.893Z,91.483333
2022-12-04T03:25:15.845Z,91.458333
2022-12-04T03:30:15.992Z,91.408000
2022-12-04T03:35:16.171Z,91.341667
2022-12-04T03:40:15.905Z,91.372000
2022-12-04T03:45:16.002Z,91.487500
2022-12-04T03:50:15.878Z,91.540000
2022-12-04T03:55:15.946Z,91.583333
2022-12-04T04:00:15.892Z,91.600000
2022-12-04T04:05:15.817Z,91.566667
2022-12-04T04:10:15.839Z,91.528000
2022-12-04T04:15:15.764Z,91.583333
2022-12-04T04:20:15.781Z,91.625000
2022-12-04T04:25:15.822Z,91.566667
2022-12-04T04:30:16.214Z,91.558333
2022-12-04T04:35:15.837Z,91.600000
2022-12-04T04:40:15.815Z,91.583333
2022-12-04T04:45:15.855Z,91.616667
2022-12-04T04:50:15.754Z,91.666667
2022-12-04T04:55:15.845Z,91.700000
2022-12-04T05:00:15.759Z,91.700000
2022-12-04T05:05:15.865Z,91.700000
2022-12-04T05:10:15.815Z,91.700000
2022-12-04T05:15:15.843Z,91.756000
2022-12-04T05:20:15.780Z,91.800000
2022-12-04T05:25:15.841Z,91.800000
2022-12-04T05:30:15.772Z,91.800000
2022-12-04T05:35:15.743Z,91.845833
2022-12-04T05:40:16.125Z,91.883333
2022-12-04T05:45:15.733Z,91.920833
2022-12-04T05:50:15.843Z,91.925000
2022-12-04T05:55:15.771Z,91.900000
2022-12-04T06:00:15.836Z,91.900000
2022-12-04T06:05:15.739Z,91.900000
2022-12-04T06:10:16.187Z,91.908333
2022-12-04T06:15:15.905Z,91.940000
2022-12-04T06:20:16.152Z,91.975000
2022-12-04T06:25:16.239Z,91.968000
2022-12-04T06:30:15.787Z,91.984000
2022-12-04T06:35:15.699Z,92.000000
2022-12-04T06:40:15.980Z,92.000000
2022-12-04T06:45:15.990Z,92.020833
2022-12-04T06:50:15.894Z,92.025000
2022-12-04T06:55:15.792Z,92.079167
2022-12-04T07:00:15.773Z,92.070833
2022-12-04T07:05:16.173Z,92.164000
2022-12-04T07:10:15.794Z,92.164000
2022-12-04T07:15:15.960Z,92.236000
2022-12-04T07:20:15.883Z,92.300000
2022-12-04T07:25:15.727Z,92.375000
2022-12-04T07:30:16.153Z,92.400000
2022-12-04T07:35:15.719Z,92.400000
2022-12-04T07:40:15.768Z,92.400000
2022-12-04T07:45:16.166Z,92.400000
2022-12-04T07:50:15.814Z,92.400000
2022-12-04T07:55:21.621Z,92.400000
2022-12-04T08:00:15.796Z,92.395833
2022-12-04T08:05:15.779Z,92.388000
2022-12-04T08:10:16.107Z,92.416667
2022-12-04T08:15:16.056Z,92.366667
2022-12-04T08:20:16.004Z,92.370833
2022-12-04T08:25:15.775Z,92.379167
2022-12-04T08:30:15.813Z,92.383333
2022-12-04T08:35:15.670Z,92.345833
2022-12-04T08:40:16.169Z,92.350000
2022-12-04T08:45:15.727Z,92.400000
2022-12-04T08:50:16.200Z,92.366667
2022-12-04T08:55:15.850Z,92.266667
2022-12-04T09:00:15.827Z,92.300000
2022-12-04T09:05:15.883Z,92.300000
2022-12-04T09:10:15.742Z,92.450000
2022-12-04T09:15:15.875Z,92.500000
2022-12-04T09:20:15.876Z,92.460000
2022-12-04T09:25:15.681Z,92.466667
2022-12-04T09:30:15.763Z,92.483333
2022-12-04T09:35:15.690Z,92.491667
2022-12-04T09:40:15.882Z,92.441667
2022-12-04T09:45:15.664Z,92.429167
2022-12-04T09:50:15.999Z,92.416667
2022-12-04T09:55:15.768Z,92.400000
2022-12-04T10:00:15.888Z,92.400000
2022-12-04T10:05:15.631Z,92.416000
2022-12-04T10:10:15.692Z,92.462500
2022-12-04T10:15:15.890Z,92.458333
2022-12-04T10:20:15.797Z,92.416667
2022-12-04T10:25:15.725Z,92.420000
2022-12-04T10:30:15.650Z,92.452000
2022-12-04T10:35:15.620Z,92.470833
2022-12-04T10:40:15.782Z,92.464000
2022-12-04T10:45:15.658Z,92.500000
2022-12-04T10:50:15.662Z,92.462500
2022-12-04T10:55:15.719Z,92.476000
2022-12-04T11:00:15.819Z,92.400000
2022-12-04T11:05:15.874Z,92.400000
2022-12-04T11:10:15.659Z,92.450000
2022-12-04T11:15:15.842Z,92.496000
2022-12-04T11:20:15.803Z,92.500000
2022-12-04T11:25:15.685Z,92.520833
2022-12-04T11:30:15.544Z,92.512500
2022-12-04T11:35:16.092Z,92.500000
2022-12-04T11:40:16.038Z,92.683333
2022-12-04T11:45:15.751Z,92.712500
2022-12-04T11:50:16.066Z,92.725000
2022-12-04T11:55:15.730Z,92.716667
2022-12-04T12:00:15.985Z,92.737500
2022-12-04T12:05:15.822Z,92.766667
2022-12-04T12:10:15.981Z,92.783333
2022-12-04T12:15:15.661Z,92.800000
2022-12-04T12:20:15.974Z,92.768000
2022-12-04T12:25:15.627Z,92.754167
2022-12-04T12:30:15.952Z,92.700000
2022-12-04T12:35:15.664Z,92.700000
2022-12-04T12:40:19.730Z,92.683333
2022-12-04T12:45:15.769Z,92.700000
2022-12-04T12:50:15.770Z,92.700000
2022-12-04T12:55:15.777Z,92.679167
2022-12-04T13:00:15.931Z,92.700000
2022-12-04T13:05:15.580Z,92.700000
2022-12-04T13:10:15.694Z,92.700000
2022-12-04T13:15:15.635Z,92.741667
2022-12-04T13:20:15.614Z,92.836000
2022-12-04T13:25:15.697Z,92.900000
2022-12-04T13:30:15.637Z,92.900000
2022-12-04T13:35:15.696Z,92.900000
2022-12-04T13:40:15.839Z,92.900000
2022-12-04T13:45:15.655Z,92.900000
2022-12-04T13:50:15.612Z,92.900000
2022-12-04T13:55:15.713Z,92.900000
2022-12-04T14:00:15.644Z,92.900000
2022-12-04T14:05:15.597Z,92.900000
2022-12-04T14:10:15.647Z,92.932000
2022-12-04T14:15:15.579Z,92.970833
2022-12-04T14:20:15.708Z,92.900000
2022-12-04T14:25:15.600Z,92.900000
2022-12-04T14:30:15.575Z,92.900000
2022-12-04T14:35:15.610Z,92.866667
2022-12-04T14:40:16.319Z,92.929167
2022-12-04T14:45:15.944Z,92.987500
2022-12-04T14:50:15.543Z,92.925000
2022-12-04T14:55:18.092Z,93.020833
2022-12-04T15:00:18.459Z,93.052000
2022-12-04T15:05:18.156Z,93.100000
2022-12-04T15:10:18.382Z,93.070833
2022-12-04T15:15:18.098Z,93.079167
2022-12-04T15:20:18.198Z,93.075000
2022-12-04T15:25:18.063Z,92.983333
2022-12-04T15:30:18.181Z,92.983333
2022-12-04T15:35:18.128Z,92.912500
2022-12-04T15:40:18.152Z,92.900000
2022-12-04T15:45:18.053Z,92.945833
2022-12-04T15:55:18.012Z,92.900000
2022-12-04T16:00:18.101Z,92.900000
2022-12-04T16:05:18.136Z,92.900000
2022-12-04T16:10:18.140Z,92.900000
2022-12-04T16:15:18.376Z,92.900000
2022-12-04T16:20:18.081Z,92.900000
2022-12-04T16:25:18.096Z,92.900000
2022-12-04T16:30:18.362Z,92.916667
2022-12-04T16:35:18.061Z,92.900000
2022-12-04T16:40:18.062Z,92.900000
2022-12-04T16:45:18.020Z,92.900000
2022-12-04T16:50:18.021Z,92.883333
2022-12-04T16:55:18.416Z,92.900000
2022-12-04T17:00:18.396Z,92.883333
2022-12-04T17:05:18.016Z,92.825000
2022-12-04T17:10:23.418Z,92.800000
2022-12-04T17:15:18.008Z,92.800000
2022-12-04T17:20:18.141Z,92.800000
2022-12-04T17:25:18.155Z,92.800000
2022-12-04T17:30:18.173Z,92.850000
2022-12-04T17:35:18.083Z,92.983333
2022-12-04T17:40:18.121Z,92.941667
2022-12-04T17:45:18.134Z,92.879167
2022-12-04T17:50:18.119Z,92.800000
2022-12-04T17:55:18.220Z,92.783333
2022-12-04T18:00:18.445Z,92.700000
2022-12-04T18:05:17.930Z,92.700000
2022-12-04T18:10:18.082Z,92.700000
2022-12-04T18:15:18.037Z,92.625000
2022-12-04T18:20:18.308Z,92.600000
2022-12-04T18:25:18.115Z,92.600000
2022-12-04T18:30:18.181Z,92.616667
2022-12-04T18:35:18.074Z,92.766667
2022-12-04T18:40:18.034Z,92.704167
2022-12-04T18:45:18.137Z,92.691667
2022-12-04T18:50:18.147Z,92.558333
2022-12-04T18:55:15.469Z,92.500000
2022-12-04T19:00:16.301Z,92.500000
2022-12-04T19:05:15.524Z,92.400000
2022-12-04T19:10:15.662Z,92.400000
2022-12-04T19:15:15.663Z,92.400000
2022-12-04T19:20:15.639Z,92.383333
2022-12-04T19:25:15.718Z,92.362500
2022-12-04T19:30:15.507Z,92.412000
2022-12-04T19:35:15.496Z,92.416667
2022-12-04T19:40:15.640Z,92.366667
2022-12-04T19:45:15.479Z,92.300000
2022-12-04T19:50:15.582Z,92.300000
2022-12-04T19:55:15.606Z,92.291667
2022-12-04T20:00:15.495Z,92.220833
2022-12-04T20:05:15.627Z,92.200000
2022-12-04T20:10:15.535Z,92.200000
2022-12-04T20:15:15.528Z,92.200000
2022-12-04T20:20:15.786Z,92.104000
2022-12-04T20:25:15.539Z,92.100000
2022-12-04T20:30:15.858Z,92.100000
2022-12-04T20:35:15.741Z,92.095833
2022-12-04T20:40:15.483Z,92.020833
2022-12-04T20:45:15.527Z,91.900000
2022-12-04T20:50:15.517Z,91.863636
2022-12-04T20:55:15.570Z,91.800000
2022-12-04T21:00:15.552Z,91.800000
2022-12-04T21:05:18.193Z,91.800000
2022-12-04T21:10:18.172Z,91.800000
2022-12-04T21:15:18.211Z,91.762500
2022-12-04T21:20:18.115Z,91.716667
2022-12-04T21:25:18.191Z,91.783333
2022-12-04T21:30:18.216Z,91.800000
2022-12-04T21:35:17.916Z,91.841667
2022-12-04T21:40:18.184Z,91.808333
2022-12-04T21:45:18.145Z,91.800000
2022-12-04T21:50:18.027Z,91.800000
2022-12-04T21:55:17.994Z,91.816667
2022-12-04T22:00:18.029Z,91.837500
2022-12-04T22:05:18.222Z,91.816667
2022-12-04T22:10:17.898Z,91.800000
2022-12-04T22:15:18.087Z,91.808333
2022-12-04T22:20:17.960Z,91.741667
2022-12-04T22:25:18.575Z,91.733333
2022-12-04T22:30:18.347Z,91.700000
2022-12-04T22:35:18.268Z,91.712500
2022-12-04T22:40:17.961Z,91.800000
2022-12-04T22:45:18.054Z,91.783333
2022-12-04T22:50:17.954Z,91.800000
2022-12-04T22:55:17.962Z,91.883333
2022-12-04T23:00:18.139Z,91.941667
2022-12-04T23:05:18.153Z,92.000000
2022-12-04T23:10:17.914Z,92.079167
2022-12-04T23:15:17.992Z,92.108333
2022-12-04T23:20:17.965Z,92.150000
2022-12-04T23:25:17.941Z,92.200000
2022-12-04T23:30:21.381Z,92.200000
2022-12-04T23:35:17.907Z,92.200000
2022-12-04T23:40:18.242Z,92.233333
2022-12-04T23:45:18.008Z,92.241667
2022-12-04T23:50:18.133Z,92.133333
2022-12-04T23:55:17.846Z,92.158333
